createdAt,value
2017-03-21T00:00:03.799Z,48.13
2017-03-21T00:00:44.436Z,47.94
2017-03-21T00:01:25.120Z,48.13
2017-03-21T00:02:05.764Z,48.04
2017-03-21T00:02:46.397Z,48.13
2017-03-21T00:03:27.027Z,48.13
2017-03-21T00:04:07.670Z,48.23
2017-03-21T00:04:48.318Z,47.92
2017-03-21T00:05:29.012Z,48.13
2017-03-21T00:06:09.646Z,48.13
2017-03-21T00:06:50.284Z,48.04
2017-03-21T00:07:30.930Z,48.13
2017-03-21T00:08:11.563Z,48.13
2017-03-21T00:08:52.200Z,48.23
2017-03-21T00:09:32.864Z,48.33
2017-03-21T00:10:13.503Z,48.13
2017-03-21T00:10:54.130Z,48.13
2017-03-21T00:11:34.778Z,48.23
2017-03-21T00:12:15.421Z,48.23
2017-03-21T00:12:56.082Z,48.13
2017-03-21T00:13:36.713Z,48.23
2017-03-21T00:14:17.422Z,48.04
2017-03-21T00:14:58.096Z,48.13
2017-03-21T00:15:38.747Z,48.13
2017-03-21T00:16:19.434Z,48.33
2017-03-21T00:17:00.058Z,48.43
2017-03-21T00:17:40.831Z,48.33
2017-03-21T00:18:21.522Z,48.33
2017-03-21T00:19:02.147Z,48.33
2017-03-21T00:19:42.782Z,48.33
2017-03-21T00:20:23.429Z,48.23
2017-03-21T00:21:04.058Z,48.23
2017-03-21T00:21:44.708Z,48.33
2017-03-21T00:22:25.343Z,48.23
2017-03-21T00:23:05.983Z,48.43
2017-03-21T00:23:46.618Z,48.43
2017-03-21T00:24:27.244Z,48.33
2017-03-21T00:25:07.878Z,48.33
2017-03-21T00:25:49.054Z,48.33
2017-03-21T00:26:29.691Z,48.52
2017-03-21T00:27:10.313Z,48.43
2017-03-21T00:27:50.938Z,48.33
2017-03-21T00:28:31.578Z,48.33
2017-03-21T00:29:12.220Z,48.33
2017-03-21T00:29:52.932Z,48.33
2017-03-21T00:30:33.478Z,48.3
2017-03-21T00:31:14.129Z,48.43
2017-03-21T00:31:54.761Z,48.33
2017-03-21T00:32:35.401Z,48.43
2017-03-21T00:33:16.037Z,48.33
2017-03-21T00:33:56.685Z,48.43
2017-03-21T00:34:37.327Z,48.33
2017-03-21T00:35:18.046Z,48.3
2017-03-21T00:35:58.679Z,48.43
2017-03-21T00:36:39.313Z,48.33
2017-03-21T00:37:19.962Z,48.33
2017-03-21T00:38:00.598Z,48.33
2017-03-21T00:38:41.236Z,48.33
2017-03-21T00:39:21.951Z,48.33
2017-03-21T00:40:02.638Z,48.23
2017-03-21T00:40:43.285Z,48.23
2017-03-21T00:41:23.924Z,48.52
2017-03-21T00:42:04.556Z,48.23
2017-03-21T00:42:45.187Z,48.43
2017-03-21T00:43:25.869Z,48.43
2017-03-21T00:44:06.634Z,48.33
2017-03-21T00:44:47.264Z,48.13
2017-03-21T00:45:27.903Z,48.13
2017-03-21T00:46:08.605Z,48.33
2017-03-21T00:46:49.245Z,48.3
2017-03-21T00:47:29.971Z,48.13
2017-03-21T00:48:10.663Z,48.23
2017-03-21T00:48:51.283Z,48.33
2017-03-21T00:49:31.956Z,48.33
2017-03-21T00:50:12.589Z,48.23
2017-03-21T00:50:53.223Z,48.52
2017-03-21T00:51:33.845Z,48.23
2017-03-21T00:52:14.465Z,48.23
2017-03-21T00:52:55.094Z,48.33
2017-03-21T00:53:35.780Z,48.33
2017-03-21T00:54:16.452Z,48.23
2017-03-21T00:54:57.090Z,48.21
2017-03-21T00:55:37.718Z,48.4
2017-03-21T00:56:18.348Z,48.33
2017-03-21T00:56:58.985Z,48.33
2017-03-21T00:57:39.618Z,48.4
2017-03-21T00:58:20.303Z,48.33
2017-03-21T00:59:00.922Z,48.43
2017-03-21T00:59:41.637Z,48.52
2017-03-21T01:00:22.372Z,48.21
2017-03-21T01:01:03.043Z,48.33
2017-03-21T01:01:43.675Z,48.33
2017-03-21T01:02:24.330Z,48.11
2017-03-21T01:03:05.012Z,48.23
2017-03-21T01:03:45.635Z,48.33
2017-03-21T01:04:26.296Z,48.33
2017-03-21T01:05:07.017Z,48.23
2017-03-21T01:05:47.643Z,48.23
2017-03-21T01:06:28.294Z,48.33
2017-03-21T01:07:08.915Z,48.21
2017-03-21T01:07:49.557Z,48.23
2017-03-21T01:08:30.241Z,48.33
2017-03-21T01:09:10.870Z,48.3
2017-03-21T01:09:51.509Z,48.4
2017-03-21T01:10:32.148Z,48.43
2017-03-21T01:11:12.777Z,48.3
2017-03-21T01:11:53.408Z,48.4
2017-03-21T01:12:34.032Z,48.11
2017-03-21T01:13:14.674Z,48.3
2017-03-21T01:13:55.306Z,48.43
2017-03-21T01:14:36.008Z,48.33
2017-03-21T01:15:16.710Z,48.4
2017-03-21T01:15:57.338Z,48.4
2017-03-21T01:16:37.983Z,48.3
2017-03-21T01:17:18.597Z,48.52
2017-03-21T01:17:59.246Z,48.3
2017-03-21T01:18:39.877Z,48.61
2017-03-21T01:19:20.500Z,48.3
2017-03-21T01:20:01.151Z,48.43
2017-03-21T01:20:41.770Z,48.33
2017-03-21T01:21:22.393Z,48.4
2017-03-21T01:22:03.020Z,48.23
2017-03-21T01:22:43.748Z,48.43
2017-03-21T01:23:24.389Z,48.33
2017-03-21T01:24:05.018Z,48.3
2017-03-21T01:24:45.650Z,48.4
2017-03-21T01:25:26.357Z,48.43
2017-03-21T01:26:06.898Z,48.4
2017-03-21T01:26:47.529Z,48.43
2017-03-21T01:27:28.162Z,48.59
2017-03-21T01:28:08.851Z,48.59
2017-03-21T01:28:49.562Z,48.59
2017-03-21T01:29:30.225Z,48.61
2017-03-21T01:30:10.863Z,48.4
2017-03-21T01:30:51.511Z,48.43
2017-03-21T01:31:32.140Z,48.59
2017-03-21T01:32:12.778Z,48.59
2017-03-21T01:32:53.457Z,48.4
2017-03-21T01:33:34.083Z,48.49
2017-03-21T01:34:14.715Z,48.59
2017-03-21T01:34:55.423Z,48.4
2017-03-21T01:35:36.057Z,48.4
2017-03-21T01:36:16.670Z,48.52
2017-03-21T01:36:57.304Z,48.4
2017-03-21T01:37:37.983Z,48.3
2017-03-21T01:38:18.559Z,48.52
2017-03-21T01:38:59.188Z,48.23
2017-03-21T01:39:39.812Z,48.33
2017-03-21T01:40:20.483Z,48.43
2017-03-21T01:41:01.104Z,48.61
2017-03-21T01:41:41.726Z,48.59
2017-03-21T01:42:22.452Z,48.49
2017-03-21T01:43:03.101Z,48.69
2017-03-21T01:43:43.740Z,48.59
2017-03-21T01:44:24.372Z,48.49
2017-03-21T01:45:05.006Z,48.4
2017-03-21T01:45:45.630Z,48.59
2017-03-21T01:46:26.308Z,48.49
2017-03-21T01:47:06.938Z,48.61
2017-03-21T01:47:47.567Z,48.61
2017-03-21T01:48:28.226Z,48.71
2017-03-21T01:49:08.920Z,48.69
2017-03-21T01:49:49.542Z,48.69
2017-03-21T01:50:30.174Z,48.69
2017-03-21T01:51:10.814Z,48.59
2017-03-21T01:51:51.444Z,48.79
2017-03-21T01:52:32.140Z,48.59
2017-03-21T01:53:12.775Z,48.71
2017-03-21T01:53:53.400Z,48.69
2017-03-21T01:54:34.042Z,48.59
2017-03-21T01:55:14.671Z,48.52
2017-03-21T01:55:55.303Z,48.69
2017-03-21T01:56:36.002Z,48.79
2017-03-21T01:57:16.630Z,48.69
2017-03-21T01:57:57.262Z,48.59
2017-03-21T01:58:37.896Z,48.79
2017-03-21T01:59:18.523Z,48.69
2017-03-21T01:59:59.159Z,48.69
2017-03-21T02:00:39.795Z,48.69
2017-03-21T02:01:20.423Z,48.59
2017-03-21T02:02:01.058Z,48.69
2017-03-21T02:02:41.753Z,48.79
2017-03-21T02:03:22.390Z,48.59
2017-03-21T02:04:03.013Z,48.49
2017-03-21T02:04:43.638Z,48.59
2017-03-21T02:05:24.275Z,48.69
2017-03-21T02:06:04.899Z,48.79
2017-03-21T02:06:45.546Z,48.79
2017-03-21T02:07:26.250Z,48.69
2017-03-21T02:08:06.882Z,48.52
2017-03-21T02:08:47.509Z,48.79
2017-03-21T02:09:28.162Z,48.88
2017-03-21T02:10:08.791Z,48.69
2017-03-21T02:10:49.419Z,48.79
2017-03-21T02:11:30.058Z,48.88
2017-03-21T02:12:10.681Z,48.88
2017-03-21T02:12:51.306Z,48.88
2017-03-21T02:13:31.983Z,48.88
2017-03-21T02:14:12.629Z,48.79
2017-03-21T02:14:53.257Z,48.79
2017-03-21T02:15:33.912Z,48.79
2017-03-21T02:16:14.551Z,48.69
2017-03-21T02:16:55.183Z,48.88
2017-03-21T02:17:35.806Z,48.88
2017-03-21T02:18:16.428Z,48.88
2017-03-21T02:18:57.077Z,48.79
2017-03-21T02:19:37.704Z,48.69
2017-03-21T02:20:18.344Z,48.59
2017-03-21T02:20:59.041Z,48.69
2017-03-21T02:21:39.663Z,48.59
2017-03-21T02:22:20.294Z,48.88
2017-03-21T02:23:00.950Z,48.69
2017-03-21T02:23:41.580Z,48.88
2017-03-21T02:24:22.217Z,48.69
2017-03-21T02:25:02.847Z,49.26
2017-03-21T02:25:43.472Z,48.69
2017-03-21T02:26:24.103Z,48.88
2017-03-21T02:27:04.723Z,48.69
2017-03-21T02:27:45.343Z,48.69
2017-03-21T02:28:26.038Z,48.97
2017-03-21T02:29:06.677Z,49.07
2017-03-21T02:29:47.301Z,49.26
2017-03-21T02:30:27.957Z,48.97
2017-03-21T02:31:08.586Z,48.97
2017-03-21T02:31:49.212Z,48.97
2017-03-21T02:32:29.893Z,49.07
2017-03-21T02:33:10.509Z,48.97
2017-03-21T02:33:51.135Z,49.07
2017-03-21T02:34:31.763Z,49.07
2017-03-21T02:35:12.401Z,49.17
2017-03-21T02:35:53.025Z,49.07
2017-03-21T02:36:33.660Z,49.07
2017-03-21T02:37:14.296Z,49.17
2017-03-21T02:37:54.919Z,49.17
2017-03-21T02:38:35.568Z,48.97
2017-03-21T02:39:16.259Z,49.07
2017-03-21T02:39:56.827Z,49.07
2017-03-21T02:40:37.463Z,49.07
2017-03-21T02:41:18.096Z,48.97
2017-03-21T02:41:58.726Z,48.88
2017-03-21T02:42:39.346Z,49.07
2017-03-21T02:43:19.987Z,49.07
2017-03-21T02:44:00.708Z,49.07
2017-03-21T02:44:41.333Z,48.97
2017-03-21T02:45:21.962Z,48.97
2017-03-21T02:46:02.614Z,48.88
2017-03-21T02:46:43.260Z,48.79
2017-03-21T02:47:23.903Z,49.26
2017-03-21T02:48:04.533Z,49.26
2017-03-21T02:48:45.163Z,48.97
2017-03-21T02:49:25.795Z,49.26
2017-03-21T02:50:06.519Z,49.36
2017-03-21T02:50:47.142Z,49.36
2017-03-21T02:51:27.764Z,49.26
2017-03-21T02:52:08.424Z,49.17
2017-03-21T02:52:49.051Z,49.26
2017-03-21T02:53:29.686Z,49.46
2017-03-21T02:54:10.416Z,49.26
2017-03-21T02:54:51.045Z,49.36
2017-03-21T02:55:31.676Z,49.17
2017-03-21T02:56:12.303Z,49.17
2017-03-21T02:56:52.943Z,49.55
2017-03-21T02:57:33.578Z,49.26
2017-03-21T02:58:14.220Z,49.26
2017-03-21T02:58:54.843Z,49.36
2017-03-21T02:59:35.464Z,49.26
2017-03-21T03:00:16.150Z,49.26
2017-03-21T03:00:56.826Z,49.07
2017-03-21T03:01:37.466Z,49.26
2017-03-21T03:02:18.117Z,49.84
2017-03-21T03:02:58.745Z,49.26
2017-03-21T03:03:39.396Z,49.26
2017-03-21T03:04:20.042Z,49.26
2017-03-21T03:05:00.680Z,49.26
2017-03-21T03:05:41.315Z,49.74
2017-03-21T03:06:21.942Z,49.46
2017-03-21T03:07:02.571Z,49.74
2017-03-21T03:07:43.195Z,49.74
2017-03-21T03:08:23.881Z,49.46
2017-03-21T03:09:04.512Z,49.46
2017-03-21T03:09:45.167Z,49.46
2017-03-21T03:10:25.809Z,49.46
2017-03-21T03:11:06.438Z,49.36
2017-03-21T03:11:47.065Z,49.26
2017-03-21T03:12:27.698Z,49.46
2017-03-21T03:13:08.373Z,49.17
2017-03-21T03:13:49.009Z,49.17
2017-03-21T03:14:29.642Z,49.07
2017-03-21T03:15:10.279Z,49.07
2017-03-21T03:15:50.909Z,49.07
2017-03-21T03:16:31.554Z,49.36
2017-03-21T03:17:12.199Z,49.36
2017-03-21T03:17:52.827Z,49.26
2017-03-21T03:18:33.558Z,49.17
2017-03-21T03:19:14.188Z,49.26
2017-03-21T03:19:54.824Z,49.46
2017-03-21T03:20:35.477Z,49.36
2017-03-21T03:21:16.160Z,49.26
2017-03-21T03:21:56.786Z,49.55
2017-03-21T03:22:37.502Z,49.26
2017-03-21T03:23:18.194Z,49.36
2017-03-21T03:23:58.823Z,49.65
2017-03-21T03:24:39.450Z,49.74
2017-03-21T03:25:20.077Z,49.55
2017-03-21T03:26:00.718Z,49.55
2017-03-21T03:26:41.455Z,49.36
2017-03-21T03:27:22.086Z,49.65
2017-03-21T03:28:02.724Z,49.46
2017-03-21T03:28:43.442Z,49.26
2017-03-21T03:29:24.203Z,49.26
2017-03-21T03:30:04.845Z,49.36
2017-03-21T03:30:45.481Z,49.26
2017-03-21T03:31:26.110Z,49.46
2017-03-21T03:32:06.742Z,49.74
2017-03-21T03:32:47.375Z,49.46
2017-03-21T03:33:28.064Z,49.65
2017-03-21T03:34:08.757Z,49.55
2017-03-21T03:34:49.403Z,49.74
2017-03-21T03:35:30.027Z,49.65
2017-03-21T03:36:10.714Z,49.93
2017-03-21T03:36:51.351Z,49.74
2017-03-21T03:37:31.979Z,49.84
2017-03-21T03:38:12.663Z,49.93
2017-03-21T03:38:53.284Z,49.93
2017-03-21T03:39:33.935Z,49.55
2017-03-21T03:40:14.579Z,49.84
2017-03-21T03:40:55.210Z,49.84
2017-03-21T03:41:35.914Z,49.93
2017-03-21T03:42:16.537Z,50.61
2017-03-21T03:42:57.156Z,50.61
2017-03-21T03:43:37.850Z,50.51
2017-03-21T03:44:18.485Z,50.61
2017-03-21T03:44:59.142Z,50.51
2017-03-21T03:45:39.750Z,50.13
2017-03-21T03:46:20.374Z,50.8
2017-03-21T03:47:00.997Z,50.32
2017-03-21T03:47:41.671Z,49.84
2017-03-21T03:48:22.374Z,50.7
2017-03-21T03:49:03.009Z,50.23
2017-03-21T03:49:43.644Z,50.42
2017-03-21T03:50:24.326Z,50.32
2017-03-21T03:51:04.946Z,50.32
2017-03-21T03:51:45.583Z,50.51
2017-03-21T03:52:26.300Z,50.32
2017-03-21T03:53:06.932Z,50.42
2017-03-21T03:53:47.610Z,50.42
2017-03-21T03:54:28.245Z,50.23
2017-03-21T03:55:08.867Z,50.32
2017-03-21T03:55:49.504Z,50.23
2017-03-21T03:56:30.270Z,50.13
2017-03-21T03:57:10.899Z,50.32
2017-03-21T03:57:51.530Z,50.32
2017-03-21T03:58:32.248Z,50.42
2017-03-21T03:59:12.872Z,50.23
2017-03-21T03:59:53.513Z,50.23
2017-03-21T04:00:34.166Z,50.23
2017-03-21T04:01:14.797Z,50.23
2017-03-21T04:01:55.435Z,50.42
2017-03-21T04:02:36.100Z,50.13
2017-03-21T04:03:16.741Z,50.23
2017-03-21T04:03:57.437Z,50.23
2017-03-21T04:04:38.168Z,50.42
2017-03-21T04:05:18.801Z,50.32
2017-03-21T04:05:59.431Z,50.23
2017-03-21T04:06:40.094Z,50.23
2017-03-21T04:07:20.725Z,50.03
2017-03-21T04:08:01.349Z,50.51
2017-03-21T04:08:41.977Z,50.32
2017-03-21T04:09:22.617Z,50.32
2017-03-21T04:10:03.247Z,50.32
2017-03-21T04:10:43.907Z,50.13
2017-03-21T04:11:24.537Z,50.23
2017-03-21T04:12:05.162Z,50.51
2017-03-21T04:12:45.839Z,50.51
2017-03-21T04:13:26.476Z,50.03
2017-03-21T04:14:07.096Z,50.51
2017-03-21T04:14:47.730Z,50.13
2017-03-21T04:15:28.363Z,50.13
2017-03-21T04:16:09.053Z,50.61
2017-03-21T04:16:49.702Z,50.32
2017-03-21T04:17:30.343Z,50.51
2017-03-21T04:18:11.044Z,50.13
2017-03-21T04:18:51.692Z,50.23
2017-03-21T04:19:32.316Z,50.51
2017-03-21T04:20:12.964Z,50.51
2017-03-21T04:20:53.674Z,50.51
2017-03-21T04:21:34.309Z,50.51
2017-03-21T04:22:14.934Z,50.61
2017-03-21T04:22:55.556Z,50.51
2017-03-21T04:23:36.184Z,50.51
2017-03-21T04:24:16.812Z,50.42
2017-03-21T04:24:57.436Z,50.51
2017-03-21T04:25:38.068Z,50.51
2017-03-21T04:26:18.715Z,50.61
2017-03-21T04:26:59.417Z,50.61
2017-03-21T04:27:40.045Z,50.61
2017-03-21T04:28:20.682Z,50.61
2017-03-21T04:29:01.385Z,50.61
2017-03-21T04:29:42.006Z,50.7
2017-03-21T04:30:22.699Z,50.7
2017-03-21T04:31:03.324Z,50.7
2017-03-21T04:31:43.964Z,50.7
2017-03-21T04:32:24.580Z,50.61
2017-03-21T04:33:05.205Z,50.7
2017-03-21T04:33:45.830Z,50.7
2017-03-21T04:34:26.474Z,50.8
2017-03-21T04:35:07.207Z,50.61
2017-03-21T04:35:47.834Z,50.8
2017-03-21T04:36:28.468Z,50.61
2017-03-21T04:37:09.093Z,50.7
2017-03-21T04:37:49.720Z,50.7
2017-03-21T04:38:30.343Z,50.7
2017-03-21T04:39:10.975Z,50.8
2017-03-21T04:39:51.603Z,50.8
2017-03-21T04:40:32.224Z,50.8
2017-03-21T04:41:12.851Z,50.8
2017-03-21T04:41:53.496Z,50.7
2017-03-21T04:42:34.239Z,50.8
2017-03-21T04:43:14.871Z,50.8
2017-03-21T04:43:55.494Z,50.8
2017-03-21T04:44:36.119Z,50.61
2017-03-21T04:45:16.761Z,50.8
2017-03-21T04:45:57.381Z,50.7
2017-03-21T04:46:38.029Z,50.8
2017-03-21T04:47:18.631Z,50.61
2017-03-21T04:47:59.268Z,50.99
2017-03-21T04:48:39.894Z,50.61
2017-03-21T04:49:20.515Z,50.61
2017-03-21T04:50:01.143Z,50.8
2017-03-21T04:50:41.774Z,50.9
2017-03-21T04:51:22.400Z,50.9
2017-03-21T04:52:03.021Z,50.9
2017-03-21T04:52:43.647Z,50.99
2017-03-21T04:53:24.282Z,50.51
2017-03-21T04:54:04.909Z,50.9
2017-03-21T04:54:45.588Z,50.7
2017-03-21T04:55:26.214Z,50.7
2017-03-21T04:56:06.836Z,50.61
2017-03-21T04:56:47.550Z,50.61
2017-03-21T04:57:28.173Z,50.9
2017-03-21T04:58:08.803Z,50.8
2017-03-21T04:58:49.428Z,50.61
2017-03-21T04:59:30.059Z,50.7
2017-03-21T05:00:10.682Z,50.9
2017-03-21T05:00:51.305Z,50.99
2017-03-21T05:01:31.933Z,50.7
2017-03-21T05:02:12.571Z,50.99
2017-03-21T05:02:53.196Z,50.99
2017-03-21T05:03:33.834Z,50.99
2017-03-21T05:04:14.468Z,50.99
2017-03-21T05:04:55.168Z,50.7
2017-03-21T05:05:35.814Z,50.9
2017-03-21T05:06:16.544Z,50.61
2017-03-21T05:06:57.181Z,50.61
2017-03-21T05:07:37.827Z,50.7
2017-03-21T05:08:18.456Z,50.7
2017-03-21T05:08:59.149Z,50.51
2017-03-21T05:09:39.785Z,50.7
2017-03-21T05:10:20.492Z,50.7
2017-03-21T05:11:01.117Z,50.7
2017-03-21T05:11:41.751Z,50.7
2017-03-21T05:12:22.377Z,50.99
2017-03-21T05:13:03.012Z,50.8
2017-03-21T05:13:43.637Z,50.7
2017-03-21T05:14:24.269Z,50.9
2017-03-21T05:15:04.965Z,50.8
2017-03-21T05:15:45.606Z,51.18
2017-03-21T05:16:26.221Z,50.8
2017-03-21T05:17:06.883Z,51.09
2017-03-21T05:17:47.505Z,50.8
2017-03-21T05:18:28.132Z,50.99
2017-03-21T05:19:08.758Z,50.8
2017-03-21T05:19:49.381Z,50.8
2017-03-21T05:20:30.009Z,50.9
2017-03-21T05:21:10.647Z,50.8
2017-03-21T05:21:51.331Z,50.8
2017-03-21T05:22:31.968Z,50.9
2017-03-21T05:23:12.699Z,50.99
2017-03-21T05:23:53.342Z,50.99
2017-03-21T05:24:33.968Z,50.99
2017-03-21T05:25:14.590Z,50.9
2017-03-21T05:25:55.214Z,50.99
2017-03-21T05:26:35.836Z,51.09
2017-03-21T05:27:16.487Z,50.99
2017-03-21T05:27:57.109Z,51.18
2017-03-21T05:28:37.794Z,51.18
2017-03-21T05:29:18.430Z,51.09
2017-03-21T05:29:59.051Z,51.09
2017-03-21T05:30:39.693Z,51.47
2017-03-21T05:31:20.368Z,51.18
2017-03-21T05:32:00.948Z,51.09
2017-03-21T05:32:41.589Z,51.47
2017-03-21T05:33:22.238Z,51.67
2017-03-21T05:34:02.883Z,51.47
2017-03-21T05:34:43.510Z,51.76
2017-03-21T05:35:24.155Z,51.76
2017-03-21T05:36:04.774Z,51.57
2017-03-21T05:36:45.404Z,51.18
2017-03-21T05:37:26.033Z,51.37
2017-03-21T05:38:06.736Z,51.76
2017-03-21T05:38:47.390Z,51.57
2017-03-21T05:39:27.981Z,51.76
2017-03-21T05:40:08.623Z,51.67
2017-03-21T05:40:49.260Z,51.76
2017-03-21T05:41:29.890Z,51.57
2017-03-21T05:42:10.596Z,51.67
2017-03-21T05:42:51.293Z,51.67
2017-03-21T05:43:31.930Z,51.67
2017-03-21T05:44:12.555Z,51.57
2017-03-21T05:44:53.193Z,51.57
2017-03-21T05:45:33.819Z,51.67
2017-03-21T05:46:14.453Z,51.76
2017-03-21T05:46:55.150Z,51.57
2017-03-21T05:47:35.783Z,51.57
2017-03-21T05:48:16.416Z,51.57
2017-03-21T05:48:57.050Z,51.57
2017-03-21T05:49:37.673Z,51.57
2017-03-21T05:50:18.313Z,51.67
2017-03-21T05:50:58.984Z,51.76
2017-03-21T05:51:39.605Z,51.67
2017-03-21T05:52:20.274Z,51.57
2017-03-21T05:53:00.903Z,51.67
2017-03-21T05:53:41.540Z,51.67
2017-03-21T05:54:22.163Z,51.47
2017-03-21T05:55:02.796Z,51.47
2017-03-21T05:55:43.433Z,51.57
2017-03-21T05:56:24.045Z,51.57
2017-03-21T05:57:04.694Z,51.37
2017-03-21T05:57:45.316Z,51.57
2017-03-21T05:58:25.953Z,51.57
2017-03-21T05:59:06.675Z,51.28
2017-03-21T05:59:47.317Z,51.37
2017-03-21T06:00:27.955Z,51.28
2017-03-21T06:01:08.584Z,51.47
2017-03-21T06:01:49.218Z,51.47
2017-03-21T06:02:29.877Z,51.37
2017-03-21T06:03:10.577Z,51.37
2017-03-21T06:03:51.210Z,51.37
2017-03-21T06:04:31.835Z,51.47
2017-03-21T06:05:12.470Z,51.28
2017-03-21T06:05:53.101Z,51.47
2017-03-21T06:06:33.845Z,51.37
2017-03-21T06:07:14.513Z,51.47
2017-03-21T06:07:55.147Z,51.37
2017-03-21T06:08:35.767Z,51.67
2017-03-21T06:09:16.401Z,51.47
2017-03-21T06:09:57.036Z,51.57
2017-03-21T06:10:37.727Z,51.47
2017-03-21T06:11:18.358Z,51.57
2017-03-21T06:11:58.977Z,51.57
2017-03-21T06:12:39.604Z,51.57
2017-03-21T06:13:20.245Z,51.67
2017-03-21T06:14:00.869Z,51.57
2017-03-21T06:14:41.496Z,51.37
2017-03-21T06:15:22.128Z,51.37
2017-03-21T06:16:02.765Z,51.47
2017-03-21T06:16:43.478Z,51.37
2017-03-21T06:17:24.176Z,51.47
2017-03-21T06:18:04.805Z,51.57
2017-03-21T06:18:45.443Z,51.57
2017-03-21T06:19:26.075Z,51.47
2017-03-21T06:20:06.704Z,51.57
2017-03-21T06:20:47.427Z,51.67
2017-03-21T06:21:28.044Z,51.67
2017-03-21T06:22:08.674Z,51.47
2017-03-21T06:22:49.304Z,51.57
2017-03-21T06:23:29.963Z,51.57
2017-03-21T06:24:10.581Z,51.57
2017-03-21T06:24:51.287Z,51.76
2017-03-21T06:25:31.921Z,51.57
2017-03-21T06:26:12.551Z,51.57
2017-03-21T06:26:53.210Z,51.67
2017-03-21T06:27:33.916Z,51.57
2017-03-21T06:28:14.544Z,51.67
2017-03-21T06:28:55.254Z,51.67
2017-03-21T06:29:35.984Z,51.57
2017-03-21T06:30:16.611Z,51.67
2017-03-21T06:30:57.288Z,51.47
2017-03-21T06:31:37.907Z,51.57
2017-03-21T06:32:18.535Z,51.76
2017-03-21T06:32:59.216Z,51.67
2017-03-21T06:33:39.910Z,51.67
2017-03-21T06:34:20.594Z,51.67
2017-03-21T06:35:01.169Z,51.76
2017-03-21T06:35:41.799Z,51.76
2017-03-21T06:36:22.428Z,51.67
2017-03-21T06:37:03.075Z,51.76
2017-03-21T06:37:43.695Z,51.76
2017-03-21T06:38:24.329Z,51.57
2017-03-21T06:39:04.949Z,51.76
2017-03-21T06:39:45.622Z,51.57
2017-03-21T06:40:26.241Z,51.57
2017-03-21T06:41:07.007Z,51.76
2017-03-21T06:41:47.698Z,51.86
2017-03-21T06:42:28.391Z,51.76
2017-03-21T06:43:09.042Z,51.95
2017-03-21T06:43:49.784Z,51.86
2017-03-21T06:44:30.466Z,51.86
2017-03-21T06:45:11.088Z,51.86
2017-03-21T06:45:51.733Z,51.67
2017-03-21T06:46:32.372Z,51.86
2017-03-21T06:47:13.020Z,51.57
2017-03-21T06:47:53.639Z,51.86
2017-03-21T06:48:34.284Z,51.76
2017-03-21T06:49:14.905Z,51.86
2017-03-21T06:49:55.558Z,51.86
2017-03-21T06:50:36.190Z,51.95
2017-03-21T06:51:16.842Z,51.86
2017-03-21T06:51:57.579Z,52.05
2017-03-21T06:52:38.278Z,51.86
2017-03-21T06:53:18.901Z,51.86
2017-03-21T06:53:59.533Z,52.05
2017-03-21T06:54:40.180Z,51.95
2017-03-21T06:55:20.811Z,51.86
2017-03-21T06:56:01.565Z,51.95
2017-03-21T06:56:42.294Z,51.86
2017-03-21T06:57:22.951Z,51.86
2017-03-21T06:58:03.588Z,51.86
2017-03-21T06:58:44.236Z,51.95
2017-03-21T06:59:24.873Z,52.05
2017-03-21T07:00:05.512Z,52.05
2017-03-21T07:00:46.137Z,52.14
2017-03-21T07:01:26.838Z,51.95
2017-03-21T07:02:07.398Z,52.14
2017-03-21T07:02:48.082Z,51.76
2017-03-21T07:03:28.786Z,51.67
2017-03-21T07:04:09.348Z,51.95
2017-03-21T07:04:49.986Z,51.67
2017-03-21T07:05:30.611Z,51.76
2017-03-21T07:06:11.243Z,51.86
2017-03-21T07:06:51.865Z,51.95
2017-03-21T07:07:32.496Z,51.86
2017-03-21T07:08:13.218Z,51.95
2017-03-21T07:08:53.856Z,51.95
2017-03-21T07:09:34.482Z,51.95
2017-03-21T07:10:15.224Z,52.14
2017-03-21T07:10:55.914Z,52.14
2017-03-21T07:11:36.538Z,52.05
2017-03-21T07:12:17.169Z,52.14
2017-03-21T07:12:57.796Z,51.95
2017-03-21T07:13:38.432Z,51.95
2017-03-21T07:14:19.056Z,51.86
2017-03-21T07:14:59.708Z,51.86
2017-03-21T07:15:40.332Z,51.86
2017-03-21T07:16:20.961Z,52.14
2017-03-21T07:17:01.613Z,51.76
2017-03-21T07:17:42.248Z,52.14
2017-03-21T07:18:22.880Z,52.05
2017-03-21T07:19:03.574Z,52.14
2017-03-21T07:19:44.219Z,52.14
2017-03-21T07:20:24.883Z,51.95
2017-03-21T07:21:05.517Z,52.24
2017-03-21T07:21:46.147Z,52.14
2017-03-21T07:22:26.840Z,52.14
2017-03-21T07:23:07.562Z,52.05
2017-03-21T07:23:48.185Z,52.14
2017-03-21T07:24:28.820Z,52.24
2017-03-21T07:25:09.448Z,52.34
2017-03-21T07:25:50.080Z,52.24
2017-03-21T07:26:30.697Z,52.05
2017-03-21T07:27:11.423Z,52.24
2017-03-21T07:27:52.042Z,52.14
2017-03-21T07:28:32.667Z,52.34
2017-03-21T07:29:13.343Z,52.05
2017-03-21T07:29:54.058Z,52.34
2017-03-21T07:30:34.611Z,52.24
2017-03-21T07:31:15.249Z,52.14
2017-03-21T07:31:55.863Z,52.05
2017-03-21T07:32:36.498Z,52.62
2017-03-21T07:33:17.121Z,52.62
2017-03-21T07:33:57.765Z,52.43
2017-03-21T07:34:38.389Z,52.14
2017-03-21T07:35:19.024Z,52.24
2017-03-21T07:35:59.653Z,52.24
2017-03-21T07:36:40.287Z,52.24
2017-03-21T07:37:20.903Z,52.14
2017-03-21T07:38:01.543Z,52.34
2017-03-21T07:38:42.174Z,52.24
2017-03-21T07:39:22.862Z,52.43
2017-03-21T07:40:03.498Z,52.14
2017-03-21T07:40:44.189Z,52.14
2017-03-21T07:41:24.816Z,52.53
2017-03-21T07:42:05.448Z,52.53
2017-03-21T07:42:46.075Z,52.72
2017-03-21T07:43:26.710Z,52.62
2017-03-21T07:44:07.335Z,52.34
2017-03-21T07:44:48.021Z,52.62
2017-03-21T07:45:28.653Z,52.62
2017-03-21T07:46:09.280Z,52.53
2017-03-21T07:46:49.910Z,52.53
2017-03-21T07:47:30.527Z,52.62
2017-03-21T07:48:11.161Z,52.62
2017-03-21T07:48:51.790Z,52.62
2017-03-21T07:49:32.429Z,52.14
2017-03-21T07:50:13.055Z,52.53
2017-03-21T07:50:53.715Z,52.62
2017-03-21T07:51:34.360Z,52.34
2017-03-21T07:52:14.971Z,52.62
2017-03-21T07:52:55.601Z,52.62
2017-03-21T07:53:36.236Z,52.53
2017-03-21T07:54:16.903Z,52.34
2017-03-21T07:54:57.512Z,52.53
2017-03-21T07:55:38.141Z,52.53
2017-03-21T07:56:18.864Z,52.62
2017-03-21T07:56:59.488Z,52.62
2017-03-21T07:57:40.118Z,52.62
2017-03-21T07:58:20.756Z,52.72
2017-03-21T07:59:01.424Z,52.24
2017-03-21T07:59:42.050Z,52.72
2017-03-21T08:00:23.260Z,52.62
2017-03-21T08:01:03.896Z,52.53
2017-03-21T08:01:44.523Z,52.53
2017-03-21T08:02:25.143Z,52.53
2017-03-21T08:03:05.765Z,52.62
2017-03-21T08:03:46.407Z,52.81
2017-03-21T08:04:27.121Z,52.43
2017-03-21T08:05:07.774Z,52.34
2017-03-21T08:05:48.408Z,52.91
2017-03-21T08:06:29.027Z,53.01
2017-03-21T08:07:09.670Z,52.53
2017-03-21T08:07:50.377Z,52.72
2017-03-21T08:08:31.017Z,53.01
2017-03-21T08:09:11.639Z,53.01
2017-03-21T08:09:52.280Z,52.53
2017-03-21T08:10:32.967Z,52.53
2017-03-21T08:11:13.599Z,52.72
2017-03-21T08:11:54.238Z,53.01
2017-03-21T08:12:34.927Z,52.72
2017-03-21T08:13:15.549Z,53.3
2017-03-21T08:13:56.187Z,52.81
2017-03-21T08:14:36.817Z,53.01
2017-03-21T08:15:17.446Z,53.2
2017-03-21T08:15:58.068Z,53.3
2017-03-21T08:16:38.709Z,53.2
2017-03-21T08:17:19.347Z,53.11
2017-03-21T08:17:59.972Z,52.81
2017-03-21T08:18:40.605Z,52.91
2017-03-21T08:19:21.224Z,53.2
2017-03-21T08:20:01.890Z,52.91
2017-03-21T08:20:42.542Z,53.11
2017-03-21T08:21:23.161Z,53.11
2017-03-21T08:22:03.873Z,53.11
2017-03-21T08:22:44.501Z,53.2
2017-03-21T08:23:25.144Z,53.39
2017-03-21T08:24:05.778Z,53.3
2017-03-21T08:24:46.413Z,53.11
2017-03-21T08:25:27.031Z,53.2
2017-03-21T08:26:07.692Z,53.11
2017-03-21T08:26:48.315Z,53.2
2017-03-21T08:27:29.001Z,53.11
2017-03-21T08:28:09.653Z,53.39
2017-03-21T08:28:50.270Z,53.39
2017-03-21T08:29:30.935Z,53.11
2017-03-21T08:30:11.552Z,53.3
2017-03-21T08:30:52.187Z,53.3
2017-03-21T08:31:32.870Z,53.39
2017-03-21T08:32:13.504Z,53.11
2017-03-21T08:32:54.131Z,53.3
2017-03-21T08:33:34.766Z,53.3
2017-03-21T08:34:15.404Z,53.01
2017-03-21T08:34:56.028Z,53.11
2017-03-21T08:35:36.654Z,52.91
2017-03-21T08:36:17.289Z,53.01
2017-03-21T08:36:57.929Z,53.11
2017-03-21T08:37:38.564Z,53.01
2017-03-21T08:38:19.312Z,52.81
2017-03-21T08:38:59.951Z,53.01
2017-03-21T08:39:40.650Z,52.81
2017-03-21T08:40:21.275Z,52.81
2017-03-21T08:41:01.895Z,53.2
2017-03-21T08:41:42.522Z,53.11
2017-03-21T08:42:23.164Z,52.72
2017-03-21T08:43:03.790Z,53.11
2017-03-21T08:43:44.440Z,52.91
2017-03-21T08:44:25.162Z,53.2
2017-03-21T08:45:05.782Z,53.39